createdAt,value
2018-01-08T00:01:40.987Z,99.90
2018-01-08T00:08:38.264Z,99.90
2018-01-08T00:10:40.713Z,99.90
2018-01-08T00:15:21.310Z,99.90
2018-01-08T00:17:48.435Z,99.90
2018-01-08T00:22:32.146Z,99.90
2018-01-08T00:27:16.119Z,99.90
2018-01-08T00:29:17.466Z,99.90
2018-01-08T00:31:30.108Z,99.90
2018-01-08T00:33:31.542Z,99.90
2018-01-08T00:38:01.410Z,99.90
2018-01-08T00:40:02.520Z,99.90
2018-01-08T00:42:04.818Z,99.90
2018-01-08T00:44:05.982Z,99.90
2018-01-08T00:46:06.978Z,99.90
2018-01-08T00:50:20.391Z,99.90
2018-01-08T00:57:17.347Z,99.90
2018-01-08T00:59:18.405Z,99.90
2018-01-08T01:01:19.526Z,99.90
2018-01-08T01:08:36.079Z,99.90
2018-01-08T01:10:47.158Z,99.90
2018-01-08T01:17:44.580Z,99.90
2018-01-08T01:19:46.124Z,99.90
2018-01-08T01:24:15.751Z,99.90
2018-01-08T01:28:45.116Z,99.90
2018-01-08T01:30:47.655Z,99.90
2018-01-08T01:32:50.358Z,99.90
2018-01-08T01:34:51.470Z,99.90
2018-01-08T01:42:04.089Z,99.90
2018-01-08T01:49:24.640Z,99.90
2018-01-08T01:51:26.271Z,99.90
2018-01-08T01:56:08.317Z,99.90
2018-01-08T01:58:09.518Z,99.90
2018-01-08T02:00:12.598Z,99.90
2018-01-08T02:05:11.646Z,99.90
2018-01-08T02:17:16.331Z,99.90
2018-01-08T02:26:50.360Z,99.90
2018-01-08T02:31:52.116Z,99.90
2018-01-08T02:38:54.234Z,99.90
2018-01-08T02:40:55.986Z,99.90
2018-01-08T02:43:17.235Z,99.90
2018-01-08T02:47:47.354Z,99.90
2018-01-08T02:52:18.686Z,99.90
2018-01-08T03:19:48.404Z,99.90
2018-01-08T03:21:57.861Z,99.90
2018-01-08T03:26:40.244Z,99.90
2018-01-08T03:28:48.972Z,99.90
2018-01-08T03:35:56.828Z,99.90
2018-01-08T03:37:58.630Z,99.90
2018-01-08T03:40:00.431Z,99.90
2018-01-08T03:47:18.667Z,99.90
2018-01-08T03:49:21.151Z,99.90
2018-01-08T03:51:22.287Z,99.90
2018-01-08T03:53:24.051Z,99.90
2018-01-08T03:55:25.060Z,99.90
2018-01-08T03:57:26.911Z,99.90
2018-01-08T03:59:27.977Z,99.90
2018-01-08T04:01:29.415Z,99.90
2018-01-08T04:03:30.562Z,99.90
2018-01-08T04:05:31.734Z,99.90
2018-01-08T04:07:32.983Z,99.90
2018-01-08T04:09:34.185Z,99.90
2018-01-08T04:11:35.399Z,99.90
2018-01-08T04:13:36.570Z,99.90
2018-01-08T04:15:37.639Z,99.90
2018-01-08T04:17:38.692Z,99.90
2018-01-08T04:19:39.770Z,99.90
2018-01-08T04:21:41.015Z,99.90
2018-01-08T04:23:42.049Z,99.90
2018-01-08T04:25:43.191Z,99.90
2018-01-08T04:27:44.209Z,99.90
2018-01-08T04:29:45.236Z,99.90
2018-01-08T04:31:46.241Z,99.90
2018-01-08T04:33:47.608Z,99.90
2018-01-08T04:35:48.644Z,99.90
2018-01-08T04:37:49.801Z,99.90
2018-01-08T04:39:50.843Z,99.90
2018-01-08T04:41:51.850Z,99.90
2018-01-08T04:43:52.856Z,99.90
2018-01-08T04:45:54.145Z,99.90
2018-01-08T04:47:55.204Z,99.90
2018-01-08T04:49:56.201Z,99.90
2018-01-08T04:51:57.404Z,99.90
2018-01-08T04:53:58.468Z,99.90
2018-01-08T04:56:00.289Z,99.90
2018-01-08T04:58:01.365Z,99.90
2018-01-08T05:00:02.355Z,99.90
2018-01-08T05:02:04.040Z,99.90
2018-01-08T05:04:05.305Z,99.90
2018-01-08T05:06:08.054Z,99.90
2018-01-08T05:08:09.178Z,99.90
2018-01-08T05:10:10.267Z,99.90
2018-01-08T05:12:15.585Z,99.90
2018-01-08T05:14:16.695Z,99.90
2018-01-08T05:16:21.918Z,99.90
2018-01-08T05:18:23.284Z,99.90
2018-01-08T05:20:25.912Z,99.90
2018-01-08T05:22:34.420Z,99.90
2018-01-08T05:24:35.595Z,99.90
2018-01-08T05:26:36.753Z,99.90
2018-01-08T05:28:38.491Z,99.90
2018-01-08T05:30:39.614Z,99.90
2018-01-08T05:32:40.714Z,99.90
2018-01-08T05:34:41.753Z,99.90
2018-01-08T05:39:30.361Z,99.90
2018-01-08T05:46:28.260Z,99.90
2018-01-08T05:48:30.284Z,99.90
2018-01-08T05:50:31.341Z,99.90
2018-01-08T05:52:33.717Z,99.90
2018-01-08T05:54:34.763Z,99.90
2018-01-08T05:56:35.839Z,99.90
2018-01-08T05:58:41.148Z,99.90
2018-01-08T06:00:44.877Z,99.90
2018-01-08T06:02:45.999Z,99.90
2018-01-08T06:07:24.416Z,99.90
2018-01-08T06:09:26.509Z,99.90
2018-01-08T06:11:28.427Z,99.90
2018-01-08T06:13:35.494Z,99.90
2018-01-08T06:15:40.388Z,99.90
2018-01-08T06:17:58.594Z,99.90
2018-01-08T06:20:16.408Z,99.90
2018-01-08T06:22:17.502Z,99.90
2018-01-08T06:24:18.608Z,99.90
2018-01-08T06:26:19.686Z,99.90
2018-01-08T06:28:20.960Z,99.90
2018-01-08T06:30:21.987Z,99.90
2018-01-08T06:32:23.150Z,99.90
2018-01-08T06:34:24.174Z,99.90
2018-01-08T06:36:25.445Z,99.90
2018-01-08T06:38:26.444Z,99.90
2018-01-08T06:40:27.503Z,99.90
2018-01-08T06:42:28.943Z,99.90
2018-01-08T06:44:30.697Z,99.90
2018-01-08T06:46:31.676Z,99.90
2018-01-08T06:48:32.736Z,99.90
2018-01-08T06:50:33.788Z,99.90
2018-01-08T06:52:34.832Z,99.90
2018-01-08T06:54:37.063Z,99.90
2018-01-08T06:56:39.336Z,99.90
2018-01-08T06:58:40.439Z,99.90
2018-01-08T07:00:41.478Z,99.90
2018-01-08T07:03:05.808Z,99.90
2018-01-08T07:05:33.743Z,99.90
2018-01-08T07:07:41.829Z,99.90
2018-01-08T07:09:48.590Z,99.90
2018-01-08T07:11:55.072Z,99.90
2018-01-08T07:13:57.376Z,99.90
2018-01-08T07:18:41.958Z,99.90
2018-01-08T07:20:46.538Z,99.90
2018-01-08T07:28:01.811Z,99.90
2018-01-08T07:30:02.768Z,99.90
2018-01-08T07:32:05.361Z,99.90
2018-01-08T07:34:09.801Z,99.90
2018-01-08T07:36:10.975Z,99.90
2018-01-08T07:38:34.247Z,99.90
2018-01-08T07:43:44.808Z,99.90
2018-01-08T07:45:53.984Z,99.90
2018-01-08T07:48:04.324Z,99.90
2018-01-08T07:50:05.352Z,99.90
2018-01-08T07:52:06.384Z,99.90
2018-01-08T07:54:07.472Z,99.90
2018-01-08T07:56:08.484Z,99.90
2018-01-08T07:58:09.472Z,99.90
2018-01-08T08:00:11.380Z,99.90
2018-01-08T08:02:15.281Z,99.90
2018-01-08T08:04:16.416Z,99.90
2018-01-08T08:06:26.027Z,99.90
2018-01-08T08:08:27.570Z,99.90
2018-01-08T08:10:33.770Z,99.90
2018-01-08T08:12:34.780Z,99.90
2018-01-08T08:14:35.817Z,99.90
2018-01-08T08:16:36.812Z,99.90
2018-01-08T08:18:38.090Z,99.90
2018-01-08T08:20:39.192Z,99.90
2018-01-08T08:22:40.272Z,99.90
2018-01-08T08:24:41.327Z,99.90
2018-01-08T08:26:42.328Z,99.90
2018-01-08T08:28:43.341Z,99.90
2018-01-08T08:30:47.930Z,99.90
2018-01-08T08:32:56.817Z,99.90
2018-01-08T08:37:34.644Z,99.90
2018-01-08T08:39:37.476Z,99.90
2018-01-08T08:41:38.747Z,99.90
2018-01-08T08:46:12.280Z,99.90
2018-01-08T08:48:13.384Z,99.90
2018-01-08T08:50:14.415Z,99.90
2018-01-08T08:52:16.367Z,99.80
2018-01-08T08:54:17.445Z,99.60
2018-01-08T08:56:18.646Z,99.50
2018-01-08T08:58:19.679Z,99.20
2018-01-08T09:02:36.825Z,98.50
2018-01-08T09:04:37.909Z,98.50
2018-01-08T09:06:38.904Z,98.30
2018-01-08T09:08:39.892Z,98.50
2018-01-08T09:10:40.897Z,97.30
2018-01-08T09:12:41.887Z,96.50
2018-01-08T09:14:42.873Z,94.00
2018-01-08T09:16:43.859Z,93.00
2018-01-08T09:18:44.928Z,89.10
2018-01-08T09:20:45.964Z,83.40
2018-01-08T09:22:47.033Z,78.60
2018-01-08T09:24:48.056Z,77.90
2018-01-08T09:26:49.109Z,75.70
2018-01-08T09:28:50.068Z,69.00
2018-01-08T09:30:51.087Z,68.20
2018-01-08T09:32:52.112Z,66.80
2018-01-08T09:34:53.141Z,62.50
2018-01-08T09:36:54.152Z,59.70
2018-01-08T09:38:55.105Z,57.30
2018-01-08T09:40:56.343Z,54.50
2018-01-08T09:42:57.295Z,55.40
2018-01-08T09:44:58.283Z,53.60
2018-01-08T09:46:59.263Z,51.70
2018-01-08T09:49:00.214Z,51.60
2018-01-08T09:51:01.291Z,50.60
2018-01-08T09:53:02.342Z,50.80
2018-01-08T09:55:03.308Z,51.10
2018-01-08T09:57:04.276Z,49.40
2018-01-08T09:59:06.435Z,49.10
2018-01-08T10:01:07.475Z,48.10
2018-01-08T10:03:20.916Z,48.30
2018-01-08T10:05:34.290Z,47.40
2018-01-08T10:07:48.724Z,46.30
2018-01-08T10:10:04.916Z,46.20
2018-01-08T10:12:18.129Z,46.40
2018-01-08T10:14:36.951Z,47.00
2018-01-08T10:16:50.276Z,47.00
2018-01-08T10:32:17.765Z,42.20
2018-01-08T10:34:18.724Z,42.20
2018-01-08T10:36:19.840Z,41.30
2018-01-08T10:38:27.833Z,40.50
2018-01-08T10:40:28.771Z,41.30
2018-01-08T10:42:36.001Z,40.50
2018-01-08T10:44:56.893Z,39.50
2018-01-08T10:47:04.068Z,39.10
2018-01-08T10:49:11.011Z,39.80
2018-01-08T10:53:49.520Z,39.40
2018-01-08T10:56:20.592Z,39.50
2018-01-08T10:58:23.511Z,37.80
2018-01-08T11:00:25.927Z,37.70
2018-01-08T11:02:32.984Z,37.60
2018-01-08T11:06:43.084Z,37.60
2018-01-08T11:08:44.087Z,36.30
2018-01-08T11:10:45.065Z,35.60
2018-01-08T11:12:46.024Z,36.50
2018-01-08T11:14:53.474Z,34.70
2018-01-08T11:19:28.622Z,34.40
2018-01-08T11:21:29.576Z,34.70
2018-01-08T11:23:30.543Z,33.90
2018-01-08T11:28:22.030Z,33.10
2018-01-08T11:35:42.262Z,32.80
2018-01-08T11:37:43.408Z,32.80
2018-01-08T11:39:49.876Z,31.90
2018-01-08T11:41:50.889Z,33.10
2018-01-08T11:44:12.612Z,32.50
2018-01-08T11:46:13.880Z,32.60
2018-01-08T11:48:16.438Z,32.90
2018-01-08T11:50:17.469Z,33.10
2018-01-08T11:52:18.447Z,33.50
2018-01-08T11:54:19.432Z,32.70
2018-01-08T11:56:20.405Z,31.00
2018-01-08T11:58:21.511Z,32.50
2018-01-08T12:00:22.509Z,31.70
2018-01-08T12:02:24.782Z,31.50
2018-01-08T12:04:25.958Z,31.70
2018-01-08T12:06:26.938Z,33.00
2018-01-08T12:08:28.080Z,34.00
2018-01-08T12:10:29.072Z,33.00
2018-01-08T12:12:30.065Z,33.60
2018-01-08T12:14:31.051Z,33.70
2018-01-08T12:16:51.976Z,33.10
2018-01-08T12:18:53.426Z,33.80
2018-01-08T12:23:57.381Z,33.50
2018-01-08T12:25:59.758Z,32.10
2018-01-08T12:28:09.298Z,32.20
2018-01-08T12:30:10.330Z,32.00
2018-01-08T12:34:48.333Z,31.20
2018-01-08T12:36:49.574Z,30.40
2018-01-08T12:39:02.211Z,30.80
2018-01-08T12:41:06.004Z,30.00
2018-01-08T12:45:43.972Z,31.30
2018-01-08T12:47:45.345Z,30.30
2018-01-08T12:49:47.035Z,29.70
2018-01-08T12:51:48.118Z,29.60
2018-01-08T12:53:49.094Z,30.90
2018-01-08T12:55:50.091Z,30.30
2018-01-08T12:57:51.794Z,30.90
2018-01-08T12:59:53.451Z,30.50
2018-01-08T13:02:12.159Z,30.20
2018-01-08T13:04:26.188Z,29.90
2018-01-08T13:06:27.148Z,30.20
2018-01-08T13:08:28.923Z,30.60
2018-01-08T13:10:32.092Z,30.60
2018-01-08T13:12:34.992Z,31.20
2018-01-08T13:14:36.014Z,29.70
2018-01-08T13:16:36.977Z,30.00
2018-01-08T13:18:38.767Z,29.30
2018-01-08T13:20:39.775Z,29.30
2018-01-08T13:22:40.748Z,29.40
2018-01-08T13:24:41.821Z,29.90
2018-01-08T13:26:42.775Z,29.30
2018-01-08T13:28:43.769Z,29.30
2018-01-08T13:30:48.230Z,29.20
2018-01-08T13:32:50.578Z,28.80
2018-01-08T13:34:52.664Z,30.00
2018-01-08T13:36:54.844Z,29.40
2018-01-08T13:38:55.965Z,29.00
2018-01-08T13:40:57.624Z,28.70
2018-01-08T13:42:58.577Z,29.40
2018-01-08T13:45:01.613Z,28.80
2018-01-08T13:47:02.703Z,29.10
2018-01-08T13:49:03.679Z,29.40
2018-01-08T13:51:04.822Z,28.50
2018-01-08T13:53:05.873Z,29.90
2018-01-08T13:55:06.851Z,29.30
2018-01-08T13:57:09.069Z,29.50
2018-01-08T13:59:10.065Z,28.60
2018-01-08T14:01:11.066Z,29.20
2018-01-08T14:03:20.677Z,29.30
2018-01-08T14:05:21.706Z,28.50
2018-01-08T14:07:22.724Z,28.10
2018-01-08T14:09:24.587Z,28.50
2018-01-08T14:11:25.653Z,28.50
2018-01-08T14:13:26.632Z,28.90
2018-01-08T14:15:28.323Z,28.30
2018-01-08T14:17:29.260Z,28.30
2018-01-08T14:19:30.277Z,29.00
2018-01-08T14:21:32.168Z,29.70
2018-01-08T14:23:33.451Z,29.20
2018-01-08T14:25:35.564Z,29.40
2018-01-08T14:27:36.696Z,29.30
2018-01-08T14:29:38.059Z,29.90
2018-01-08T14:31:39.798Z,31.10
2018-01-08T14:33:40.755Z,30.90
2018-01-08T14:35:42.275Z,31.60
2018-01-08T14:37:43.304Z,31.50
2018-01-08T14:39:44.270Z,31.90
2018-01-08T14:41:45.990Z,34.10
2018-01-08T14:43:48.214Z,34.10
2018-01-08T14:45:49.276Z,33.90
2018-01-08T14:47:50.487Z,34.90
2018-01-08T14:49:51.472Z,35.20
2018-01-08T14:51:52.439Z,35.30
2018-01-08T14:53:53.473Z,36.10
2018-01-08T14:55:54.509Z,35.60
2018-01-08T14:57:55.451Z,34.50
2018-01-08T14:59:56.435Z,35.50
2018-01-08T15:01:57.918Z,36.00
2018-01-08T15:03:59.603Z,36.00
2018-01-08T15:06:00.671Z,37.20
2018-01-08T15:08:01.714Z,36.80
2018-01-08T15:10:02.696Z,38.00
2018-01-08T15:12:03.659Z,37.90
2018-01-08T15:14:04.616Z,37.60
2018-01-08T15:16:05.603Z,37.80
2018-01-08T15:18:06.725Z,37.70
2018-01-08T15:20:07.689Z,38.60
2018-01-08T15:22:09.539Z,37.90
2018-01-08T15:24:10.734Z,37.80
2018-01-08T15:26:11.921Z,38.30
2018-01-08T15:28:14.033Z,38.40
2018-01-08T15:30:16.381Z,38.40
2018-01-08T15:32:18.000Z,38.30
2018-01-08T15:34:19.075Z,38.70
2018-01-08T15:36:20.052Z,39.80
2018-01-08T15:38:21.026Z,38.20
2018-01-08T15:40:22.228Z,39.10
2018-01-08T15:42:23.228Z,38.70
2018-01-08T15:44:24.207Z,38.70
2018-01-08T15:46:25.180Z,38.40
2018-01-08T15:48:26.149Z,38.80
2018-01-08T15:50:27.154Z,39.50
2018-01-08T15:52:28.882Z,39.30
2018-01-08T15:54:29.929Z,39.30
2018-01-08T15:56:33.368Z,39.10
2018-01-08T15:58:34.335Z,39.60
2018-01-08T16:00:35.275Z,40.20
2018-01-08T16:02:36.263Z,39.80
2018-01-08T16:04:37.961Z,40.00
2018-01-08T16:06:38.944Z,39.90
2018-01-08T16:08:39.994Z,40.40
2018-01-08T16:10:41.016Z,40.30
2018-01-08T16:12:42.716Z,40.40
2018-01-08T16:14:43.699Z,40.30
2018-01-08T16:16:44.684Z,41.40
2018-01-08T16:18:45.678Z,40.30
2018-01-08T16:20:46.659Z,41.10
2018-01-08T16:22:47.620Z,40.40
2018-01-08T16:24:54.541Z,41.30
2018-01-08T16:26:55.586Z,40.50
2018-01-08T16:28:56.611Z,40.30
2018-01-08T16:30:57.790Z,41.80
2018-01-08T16:32:58.795Z,41.20
2018-01-08T16:35:01.414Z,42.20
2018-01-08T16:37:02.356Z,42.30
2018-01-08T16:39:03.388Z,42.60
2018-01-08T16:41:05.116Z,42.00
2018-01-08T16:43:06.891Z,42.00
2018-01-08T16:45:08.810Z,42.10
2018-01-08T16:47:09.808Z,42.50
2018-01-08T16:49:12.377Z,44.20
2018-01-08T16:51:13.468Z,44.00
2018-01-08T16:53:14.443Z,42.40
2018-01-08T16:55:15.383Z,43.10
2018-01-08T16:57:17.083Z,43.60
2018-01-08T16:59:18.171Z,43.60
2018-01-08T17:01:19.197Z,42.40
2018-01-08T17:03:20.132Z,42.40
2018-01-08T17:05:22.536Z,43.30
2018-01-08T17:07:23.782Z,43.40
2018-01-08T17:09:24.802Z,43.50
2018-01-08T17:11:26.513Z,46.00
2018-01-08T17:13:27.619Z,45.30
2018-01-08T17:15:31.721Z,43.50
2018-01-08T17:17:38.002Z,43.50
2018-01-08T17:19:38.979Z,43.70
2018-01-08T17:21:40.255Z,43.70
2018-01-08T17:23:42.412Z,45.90
2018-01-08T17:25:44.198Z,43.70
2018-01-08T17:27:45.228Z,43.80
2018-01-08T17:29:46.241Z,44.20
2018-01-08T17:31:47.972Z,43.60
2018-01-08T17:33:48.917Z,43.50
2018-01-08T17:35:50.548Z,44.10
2018-01-08T17:37:51.890Z,44.30
2018-01-08T17:42:05.048Z,45.30
2018-01-08T17:44:06.181Z,44.80
2018-01-08T17:46:07.217Z,44.70
2018-01-08T17:48:09.636Z,43.90
2018-01-08T17:50:10.630Z,44.90
2018-01-08T17:52:11.575Z,44.20
2018-01-08T17:54:12.554Z,45.20
2018-01-08T17:56:13.594Z,43.80
2018-01-08T17:58:16.362Z,44.70
2018-01-08T18:00:24.328Z,44.00
2018-01-08T18:02:25.393Z,45.00
2018-01-08T18:04:32.959Z,43.80
2018-01-08T18:06:33.969Z,43.90
2018-01-08T18:08:34.919Z,42.90
2018-01-08T18:10:36.072Z,45.00
2018-01-08T18:12:37.356Z,45.20
2018-01-08T18:14:39.149Z,44.60
2018-01-08T18:16:41.135Z,44.60
2018-01-08T18:18:42.079Z,45.80
2018-01-08T18:20:43.027Z,45.40
2018-01-08T18:22:43.979Z,44.50
2018-01-08T18:24:52.932Z,45.00
2018-01-08T18:26:53.899Z,45.40
2018-01-08T18:28:54.902Z,43.70
2018-01-08T18:30:55.975Z,44.10
2018-01-08T18:32:56.995Z,45.00
2018-01-08T18:35:01.972Z,44.20
2018-01-08T18:37:22.242Z,44.50
2018-01-08T18:39:23.757Z,45.20
2018-01-08T18:41:25.523Z,46.70
2018-01-08T18:43:26.435Z,46.70
2018-01-08T18:45:27.510Z,44.50
2018-01-08T18:47:28.502Z,45.50
2018-01-08T18:49:40.804Z,45.00
2018-01-08T18:51:41.795Z,44.70
2018-01-08T18:55:56.930Z,45.20
2018-01-08T18:58:00.024Z,44.90
2018-01-08T19:00:01.035Z,46.30
2018-01-08T19:02:06.288Z,46.10
2018-01-08T19:04:07.459Z,46.50
2018-01-08T19:06:08.417Z,45.20
2018-01-08T19:10:37.395Z,45.20
2018-01-08T19:12:38.377Z,46.10
2018-01-08T19:14:39.400Z,45.30
2018-01-08T19:16:41.117Z,46.10
2018-01-08T19:18:42.084Z,46.10
2018-01-08T19:20:49.740Z,46.00
2018-01-08T19:22:59.711Z,47.10
2018-01-08T19:25:00.737Z,47.10
2018-01-08T19:27:01.822Z,46.50
2018-01-08T19:29:02.796Z,47.30
2018-01-08T19:31:03.771Z,47.50
2018-01-08T19:33:04.724Z,47.80
2018-01-08T19:35:05.665Z,46.50
2018-01-08T19:37:06.623Z,48.90
2018-01-08T19:39:08.342Z,48.60
2018-01-08T19:41:09.317Z,48.50
2018-01-08T19:43:10.291Z,48.50
2018-01-08T19:45:11.516Z,49.90
2018-01-08T19:47:18.599Z,49.00
2018-01-08T19:49:19.630Z,48.50
2018-01-08T19:51:26.711Z,49.60
2018-01-08T19:53:27.748Z,48.70
2018-01-08T19:55:28.694Z,50.90
2018-01-08T19:57:30.995Z,49.60
2018-01-08T19:59:35.136Z,49.60
2018-01-08T20:01:37.283Z,50.60
2018-01-08T20:06:29.015Z,51.10
2018-01-08T20:08:29.987Z,51.10
2018-01-08T20:10:35.259Z,51.60
2018-01-08T20:12:38.500Z,51.80
2018-01-08T20:14:39.792Z,52.70
2018-01-08T20:16:44.476Z,54.30
2018-01-08T20:23:42.790Z,55.40
2018-01-08T20:25:45.983Z,55.70
2018-01-08T20:37:00.489Z,57.30
2018-01-08T20:39:02.656Z,57.40
2018-01-08T20:41:03.696Z,57.50
2018-01-08T20:43:07.328Z,58.30
2018-01-08T20:48:09.892Z,59.30
2018-01-08T20:50:12.031Z,59.10
2018-01-08T20:52:20.349Z,61.60
2018-01-08T20:54:30.320Z,60.20
2018-01-08T20:56:32.813Z,60.60
2018-01-08T20:58:39.963Z,60.20
2018-01-08T21:00:55.067Z,60.50
2018-01-08T21:03:09.734Z,61.80
2018-01-08T21:05:10.862Z,61.20
2018-01-08T21:09:35.656Z,61.90
2018-01-08T21:11:51.669Z,62.60
2018-01-08T21:14:24.485Z,61.90
2018-01-08T21:16:25.870Z,63.60
2018-01-08T21:18:33.010Z,64.00
2018-01-08T21:20:39.635Z,63.80
2018-01-08T21:22:40.921Z,64.00
2018-01-08T21:27:20.828Z,65.00
2018-01-08T21:29:22.878Z,65.10
2018-01-08T21:31:26.383Z,63.60
2018-01-08T21:33:28.708Z,64.70
2018-01-08T21:35:29.728Z,64.60
2018-01-08T21:37:42.260Z,65.90
2018-01-08T21:39:56.987Z,65.50
2018-01-08T21:41:58.051Z,67.20
2018-01-08T21:43:59.189Z,67.10
2018-01-08T21:48:25.515Z,67.30
2018-01-08T21:50:28.829Z,67.90
2018-01-08T21:52:30.666Z,68.50
2018-01-08T21:54:31.644Z,68.50
2018-01-08T21:56:32.635Z,69.80
2018-01-08T21:58:38.023Z,69.00
2018-01-08T22:00:39.102Z,69.30
2018-01-08T22:02:40.136Z,69.90
2018-01-08T22:04:41.381Z,70.30
2018-01-08T22:09:21.395Z,70.90
2018-01-08T22:11:22.687Z,70.80
2018-01-08T22:21:38.812Z,70.50
2018-01-08T22:23:42.326Z,70.20
2018-01-08T22:25:43.351Z,69.80
2018-01-08T22:30:13.476Z,70.60
2018-01-08T22:32:14.495Z,70.70
2018-01-08T22:34:15.637Z,70.60
2018-01-08T22:38:49.707Z,70.60
2018-01-08T22:43:31.963Z,71.50
2018-01-08T22:48:11.815Z,73.00
2018-01-08T22:52:54.678Z,72.90
2018-01-08T22:55:05.337Z,72.80
2018-01-08T22:59:35.540Z,74.20
2018-01-08T23:01:36.680Z,73.20
2018-01-08T23:03:39.273Z,73.60
2018-01-08T23:05:47.472Z,72.80
2018-01-08T23:16:26.455Z,72.90
2018-01-08T23:18:42.102Z,73.40
2018-01-08T23:20:43.446Z,73.80
2018-01-08T23:22:51.516Z,73.60
2018-01-08T23:30:00.469Z,74.00
2018-01-08T23:34:32.339Z,74.60
2018-01-08T23:36:33.471Z,73.70
2018-01-08T23:54:24.578Z,75.40
2018-01-08T23:57:02.555Z,75.20
